createdAt,value
2023-05-05T00:01:03.107Z,11.09
2023-05-05T00:03:29.964Z,11.04
2023-05-05T00:05:58.928Z,11.02
2023-05-05T00:08:31.044Z,10.87
2023-05-05T00:11:00.764Z,10.97
2023-05-05T00:13:27.230Z,10.85
2023-05-05T00:15:53.879Z,10.78
2023-05-05T00:18:21.268Z,10.77
2023-05-05T00:20:48.173Z,10.86
2023-05-05T00:23:15.958Z,10.71
2023-05-05T00:25:42.567Z,10.65
2023-05-05T00:28:09.076Z,10.66
2023-05-05T00:30:36.528Z,10.53
2023-05-05T00:33:03.120Z,10.51
2023-05-05T00:35:29.659Z,10.67
2023-05-05T00:37:56.148Z,10.71
2023-05-05T00:40:23.465Z,10.85
2023-05-05T00:42:51.076Z,10.51
2023-05-05T00:45:19.279Z,10.44
2023-05-05T00:47:51.514Z,10.47
2023-05-05T00:50:29.488Z,10.62
2023-05-05T00:53:03.274Z,10.68
2023-05-05T00:55:30.818Z,10.65
2023-05-05T00:58:02.885Z,10.80
2023-05-05T01:00:30.057Z,11.01
2023-05-05T01:02:57.370Z,11.14
2023-05-05T01:05:26.968Z,11.14
2023-05-05T01:08:30.626Z,11.20
2023-05-05T01:11:10.535Z,11.03
2023-05-05T01:13:53.701Z,11.01
2023-05-05T01:16:27.357Z,10.99
2023-05-05T01:19:08.981Z,10.79
2023-05-05T01:21:41.200Z,10.79
2023-05-05T01:24:29.521Z,10.88
2023-05-05T01:27:27.282Z,10.78
2023-05-05T01:30:21.252Z,10.70
2023-05-05T01:32:55.157Z,10.80
2023-05-05T01:35:44.556Z,10.97
2023-05-05T01:38:16.997Z,11.14
2023-05-05T01:40:48.067Z,11.24
2023-05-05T01:43:18.864Z,11.22
2023-05-05T01:45:47.680Z,11.06
2023-05-05T01:48:17.815Z,10.87
2023-05-05T01:50:47.718Z,10.90
2023-05-05T01:53:18.072Z,10.78
2023-05-05T01:55:47.319Z,10.84
2023-05-05T01:58:16.209Z,10.80
2023-05-05T02:00:44.506Z,10.69
2023-05-05T02:03:14.489Z,10.74
2023-05-05T02:05:43.444Z,10.66
2023-05-05T02:08:11.447Z,10.81
2023-05-05T02:10:42.832Z,10.81
2023-05-05T02:13:12.550Z,10.62
2023-05-05T02:15:40.505Z,10.61
2023-05-05T02:18:09.872Z,10.53
2023-05-05T02:20:39.607Z,10.48
2023-05-05T02:23:07.895Z,10.43
2023-05-05T02:25:43.836Z,10.23
2023-05-05T02:28:17.796Z,10.20
2023-05-05T02:30:55.176Z,10.10
2023-05-05T02:33:23.574Z,10.01
2023-05-05T02:35:53.332Z,9.96
2023-05-05T02:38:27.552Z,9.80
2023-05-05T02:41:00.377Z,9.70
2023-05-05T02:43:31.621Z,9.73
2023-05-05T02:45:58.516Z,9.74
2023-05-05T02:48:25.707Z,9.63
2023-05-05T02:50:53.731Z,9.50
2023-05-05T02:53:27.500Z,9.47
2023-05-05T02:55:59.998Z,9.57
2023-05-05T02:59:10.021Z,9.61
2023-05-05T03:01:51.146Z,9.49
2023-05-05T03:04:42.604Z,9.54
2023-05-05T03:07:15.202Z,9.58
2023-05-05T03:09:55.356Z,9.55
2023-05-05T03:12:27.397Z,9.68
2023-05-05T03:15:12.434Z,9.74
2023-05-05T03:17:41.572Z,9.93
2023-05-05T03:20:10.364Z,9.93
2023-05-05T03:22:40.415Z,9.77
2023-05-05T03:25:11.418Z,9.87
2023-05-05T03:27:37.899Z,9.92
2023-05-05T03:30:06.846Z,10.02
2023-05-05T03:32:36.053Z,10.06
2023-05-05T03:35:02.598Z,9.96
2023-05-05T03:37:32.709Z,9.78
2023-05-05T03:39:59.567Z,9.55
2023-05-05T03:42:26.032Z,9.63
2023-05-05T03:44:53.783Z,9.60
2023-05-05T03:47:24.499Z,9.54
2023-05-05T03:49:52.431Z,9.65
2023-05-05T03:52:19.083Z,9.72
2023-05-05T03:54:46.397Z,9.78
2023-05-05T03:57:12.840Z,9.60
2023-05-05T03:59:40.447Z,9.72
2023-05-05T04:02:07.446Z,9.73
2023-05-05T04:04:34.176Z,9.93
2023-05-05T04:07:00.724Z,10.05
2023-05-05T04:09:27.200Z,10.08
2023-05-05T04:11:53.825Z,10.12
2023-05-05T04:14:20.470Z,10.04
2023-05-05T04:16:46.927Z,9.82
2023-05-05T04:19:13.490Z,9.61
2023-05-05T04:21:40.718Z,9.53
2023-05-05T04:24:07.197Z,9.69
2023-05-05T04:26:34.080Z,9.84
2023-05-05T04:29:00.978Z,9.83
2023-05-05T04:31:27.620Z,9.90
2023-05-05T04:33:54.187Z,9.66
2023-05-05T04:36:20.883Z,9.60
2023-05-05T04:38:47.830Z,9.65
2023-05-05T04:41:14.328Z,9.68
2023-05-05T04:43:42.566Z,9.71
2023-05-05T04:46:09.183Z,9.71
2023-05-05T04:48:37.889Z,9.80
2023-05-05T04:51:06.390Z,9.72
2023-05-05T04:53:33.438Z,9.91
2023-05-05T04:56:01.193Z,10.12
2023-05-05T04:58:28.482Z,10.35
2023-05-05T05:00:55.330Z,10.49
2023-05-05T05:03:22.053Z,10.36
2023-05-05T05:05:48.694Z,10.49
2023-05-05T05:08:18.567Z,10.61
2023-05-05T05:10:45.320Z,10.72
2023-05-05T05:13:12.867Z,10.93
2023-05-05T05:15:39.748Z,11.01
2023-05-05T05:18:06.495Z,11.30
2023-05-05T05:20:33.177Z,12.10
2023-05-05T05:23:02.051Z,13.26
2023-05-05T05:25:30.311Z,14.16
2023-05-05T05:28:08.815Z,15.32
2023-05-05T05:30:39.312Z,16.20
2023-05-05T05:33:07.651Z,15.25
2023-05-05T05:35:34.466Z,14.90
2023-05-05T05:38:01.323Z,15.28
2023-05-05T05:40:27.986Z,15.82
2023-05-05T05:42:55.141Z,16.09
2023-05-05T05:45:23.542Z,16.13
2023-05-05T05:47:50.374Z,16.09
2023-05-05T05:50:17.023Z,16.27
2023-05-05T05:52:43.751Z,16.91
2023-05-05T05:55:10.445Z,16.64
2023-05-05T05:57:38.596Z,16.75
2023-05-05T06:00:07.769Z,16.77
2023-05-05T06:02:42.719Z,16.42
2023-05-05T06:05:13.925Z,16.27
2023-05-05T06:07:42.348Z,16.03
2023-05-05T06:10:25.834Z,16.48
2023-05-05T06:12:57.574Z,16.09
2023-05-05T06:15:25.484Z,17.30
2023-05-05T06:17:52.358Z,17.90
2023-05-05T06:20:19.005Z,18.24
2023-05-05T06:22:45.643Z,18.07
2023-05-05T06:25:12.276Z,18.53
2023-05-05T06:27:38.717Z,18.40
2023-05-05T06:30:06.838Z,19.00
2023-05-05T06:32:33.445Z,20.03
2023-05-05T06:34:59.944Z,20.45
2023-05-05T06:37:26.403Z,19.98
2023-05-05T06:39:52.850Z,19.36
2023-05-05T06:42:19.301Z,19.12
2023-05-05T06:44:46.421Z,18.87
2023-05-05T06:47:12.984Z,19.38
2023-05-05T06:49:39.448Z,19.63
2023-05-05T06:52:08.099Z,19.95
2023-05-05T06:54:34.532Z,20.41
2023-05-05T06:57:01.090Z,20.60
2023-05-05T06:59:27.595Z,21.08
2023-05-05T07:01:54.227Z,22.82
2023-05-05T07:04:21.357Z,24.04
2023-05-05T07:06:47.834Z,24.31
2023-05-05T07:09:16.403Z,25.20
2023-05-05T07:11:43.494Z,25.11
2023-05-05T07:14:09.936Z,24.28
2023-05-05T07:16:37.259Z,24.32
2023-05-05T07:19:06.121Z,24.19
2023-05-05T07:21:34.153Z,24.07
2023-05-05T07:24:02.324Z,24.82
2023-05-05T07:26:28.986Z,23.90
2023-05-05T07:28:57.202Z,24.28
2023-05-05T07:31:23.807Z,25.79
2023-05-05T07:33:50.278Z,26.03
2023-05-05T07:36:20.041Z,26.77
2023-05-05T07:38:46.620Z,26.55
2023-05-05T07:41:13.216Z,27.34
2023-05-05T07:43:44.509Z,26.19
2023-05-05T07:46:11.514Z,26.56
2023-05-05T07:48:41.621Z,26.89
2023-05-05T07:51:08.610Z,27.03
2023-05-05T07:53:35.149Z,27.05
2023-05-05T07:56:01.836Z,27.14
2023-05-05T07:58:28.356Z,27.32
2023-05-05T08:00:54.869Z,27.27
2023-05-05T08:03:24.295Z,27.39
2023-05-05T08:05:55.683Z,27.25
2023-05-05T08:08:26.844Z,27.15
2023-05-05T08:10:53.491Z,26.64
2023-05-05T08:13:20.447Z,26.14
2023-05-05T08:15:47.271Z,27.38
2023-05-05T08:18:14.416Z,26.46
2023-05-05T08:20:41.056Z,26.39
2023-05-05T08:23:07.575Z,25.71
2023-05-05T08:25:34.126Z,24.29
2023-05-05T08:28:01.247Z,23.94
2023-05-05T08:30:28.444Z,23.62
2023-05-05T08:32:59.613Z,24.08
2023-05-05T08:35:29.424Z,23.48
2023-05-05T08:37:59.086Z,23.57
2023-05-05T08:40:32.137Z,23.71
2023-05-05T08:42:59.165Z,23.68
2023-05-05T08:45:27.786Z,23.42
2023-05-05T08:47:56.717Z,23.23
2023-05-05T08:50:26.883Z,23.41
2023-05-05T08:53:07.340Z,24.05
2023-05-05T08:55:35.425Z,23.55
2023-05-05T08:58:05.255Z,23.06
2023-05-05T09:00:33.144Z,23.18
2023-05-05T09:03:01.372Z,23.25
2023-05-05T09:05:28.009Z,23.38
2023-05-05T09:07:54.738Z,23.39
2023-05-05T09:10:21.570Z,22.79
2023-05-05T09:12:50.930Z,23.04
2023-05-05T09:15:17.635Z,23.16
2023-05-05T09:17:44.306Z,23.23
2023-05-05T09:20:13.213Z,23.22
2023-05-05T09:22:41.767Z,23.30
2023-05-05T09:25:15.601Z,22.84
2023-05-05T09:27:47.425Z,23.01
2023-05-05T09:30:27.056Z,23.06
2023-05-05T09:32:55.072Z,22.63
2023-05-05T09:35:22.658Z,23.22
2023-05-05T09:37:49.714Z,23.18
2023-05-05T09:40:18.943Z,23.03
2023-05-05T09:42:45.928Z,22.91
2023-05-05T09:45:18.568Z,22.98
2023-05-05T09:47:46.790Z,23.03
2023-05-05T09:50:16.030Z,23.03
2023-05-05T09:52:43.274Z,23.09
2023-05-05T09:55:20.577Z,23.14
2023-05-05T09:57:47.477Z,23.32
2023-05-05T10:00:17.610Z,23.52
2023-05-05T10:02:44.370Z,23.53
2023-05-05T10:05:16.263Z,23.56
2023-05-05T10:07:47.738Z,23.57
2023-05-05T10:10:18.081Z,23.47
2023-05-05T10:12:47.523Z,23.35
2023-05-05T10:15:18.457Z,23.57
2023-05-05T10:18:05.351Z,23.76
2023-05-05T10:20:33.456Z,23.94
2023-05-05T10:23:05.431Z,23.67
2023-05-05T10:25:39.105Z,24.00
2023-05-05T10:28:09.424Z,24.13
2023-05-05T10:30:44.000Z,24.16
2023-05-05T10:35:55.421Z,24.22
2023-05-05T10:38:24.812Z,23.72
2023-05-05T10:40:56.139Z,23.38
2023-05-05T10:43:24.108Z,22.94
2023-05-05T10:45:51.092Z,23.23
2023-05-05T10:48:25.000Z,23.04
2023-05-05T10:50:57.431Z,23.44
2023-05-05T10:53:29.308Z,23.72
2023-05-05T10:56:21.937Z,24.00
2023-05-05T10:58:58.890Z,23.54
2023-05-05T11:01:33.492Z,23.81
2023-05-05T11:04:20.540Z,23.94
2023-05-05T11:07:11.823Z,24.37
2023-05-05T11:10:01.603Z,24.81
2023-05-05T11:12:29.712Z,24.84
2023-05-05T11:15:24.181Z,24.95
2023-05-05T11:17:51.069Z,23.93
2023-05-05T11:20:17.647Z,23.95
2023-05-05T11:23:02.118Z,24.32
2023-05-05T11:25:34.664Z,24.63
2023-05-05T11:28:06.344Z,24.70
2023-05-05T11:30:32.913Z,23.31
2023-05-05T11:33:31.470Z,22.94
2023-05-05T11:36:03.520Z,22.49
2023-05-05T11:39:11.299Z,22.52
2023-05-05T11:42:02.944Z,22.69
2023-05-05T11:44:35.771Z,23.16
2023-05-05T11:47:04.994Z,23.36
2023-05-05T11:49:36.671Z,22.90
2023-05-05T11:52:12.440Z,23.17
2023-05-05T11:54:47.989Z,22.46
2023-05-05T11:57:21.158Z,22.52
2023-05-05T11:59:56.881Z,23.31
2023-05-05T12:02:24.371Z,23.59
2023-05-05T12:04:50.992Z,23.80
2023-05-05T12:07:19.042Z,23.62
2023-05-05T12:09:47.238Z,23.63
2023-05-05T12:12:14.790Z,24.22
2023-05-05T12:14:52.632Z,24.96
2023-05-05T12:17:21.191Z,25.56
2023-05-05T12:19:55.192Z,25.48
2023-05-05T12:22:24.241Z,24.22
2023-05-05T12:24:55.604Z,24.03
2023-05-05T12:27:22.794Z,24.16
2023-05-05T12:29:49.591Z,24.49
2023-05-05T12:32:27.957Z,25.17
2023-05-05T12:34:57.534Z,24.95
2023-05-05T12:37:25.776Z,24.99
2023-05-05T12:39:54.740Z,24.06
2023-05-05T12:43:12.302Z,24.09
2023-05-05T12:45:38.822Z,24.26
2023-05-05T12:48:23.972Z,24.95
2023-05-05T12:50:50.980Z,25.06
2023-05-05T12:53:24.518Z,24.87
2023-05-05T12:55:51.857Z,24.65
2023-05-05T12:58:18.273Z,24.46
2023-05-05T13:00:44.706Z,24.78
2023-05-05T13:03:21.121Z,24.74
2023-05-05T13:05:50.269Z,24.69
2023-05-05T13:08:18.485Z,24.34
2023-05-05T13:10:58.328Z,24.22
2023-05-05T13:13:24.820Z,23.83
2023-05-05T13:15:51.323Z,23.93
2023-05-05T13:18:17.930Z,23.78
2023-05-05T13:20:44.407Z,23.24
2023-05-05T13:23:10.932Z,23.09
2023-05-05T13:25:37.443Z,22.63
2023-05-05T13:28:04.066Z,22.62
2023-05-05T13:30:30.551Z,22.49
2023-05-05T13:32:57.072Z,22.49
2023-05-05T13:35:23.641Z,23.25
2023-05-05T13:37:50.154Z,23.07
2023-05-05T13:40:16.671Z,22.78
2023-05-05T13:42:43.264Z,22.44
2023-05-05T13:45:10.463Z,22.22
2023-05-05T13:47:38.110Z,21.68
2023-05-05T13:50:05.046Z,21.60
2023-05-05T13:52:32.274Z,21.32
2023-05-05T13:55:00.787Z,21.17
2023-05-05T13:57:27.202Z,20.93
2023-05-05T13:59:53.576Z,20.97
2023-05-05T14:02:19.988Z,20.97
2023-05-05T14:04:47.152Z,20.74
2023-05-05T14:07:13.648Z,20.61
2023-05-05T14:09:40.033Z,20.62
2023-05-05T14:12:06.475Z,20.39
2023-05-05T14:14:32.975Z,20.21
2023-05-05T14:16:59.406Z,20.06
2023-05-05T14:19:25.864Z,19.89
2023-05-05T14:21:52.288Z,19.62
2023-05-05T14:24:18.674Z,18.16
2023-05-05T14:26:45.131Z,17.44
2023-05-05T14:29:11.518Z,17.46
2023-05-05T14:31:37.947Z,17.42
2023-05-05T14:34:04.360Z,17.39
2023-05-05T14:36:31.206Z,17.27
2023-05-05T14:38:57.682Z,17.49
2023-05-05T14:41:24.356Z,17.74
2023-05-05T14:43:50.784Z,17.96
2023-05-05T14:46:18.600Z,17.91
2023-05-05T14:48:46.391Z,18.05
2023-05-05T14:51:14.936Z,18.10
2023-05-05T14:53:41.412Z,17.96
2023-05-05T14:56:07.834Z,18.11
2023-05-05T14:58:34.393Z,17.99
2023-05-05T15:01:00.913Z,17.86
2023-05-05T15:03:27.615Z,17.90
2023-05-05T15:05:54.142Z,17.92
2023-05-05T15:08:20.645Z,17.88
2023-05-05T15:10:47.078Z,17.71
2023-05-05T15:13:13.651Z,17.47
2023-05-05T15:15:40.416Z,17.61
2023-05-05T15:18:07.060Z,17.30
2023-05-05T15:20:33.465Z,17.26
2023-05-05T15:23:01.293Z,17.25
2023-05-05T15:25:27.798Z,17.22
2023-05-05T15:27:54.209Z,17.12
2023-05-05T15:30:20.856Z,16.77
2023-05-05T15:32:47.806Z,16.61
2023-05-05T15:35:14.225Z,16.44
2023-05-05T15:37:42.347Z,16.50
2023-05-05T15:40:09.293Z,16.63
2023-05-05T15:42:35.753Z,16.63
2023-05-05T15:45:02.723Z,16.57
2023-05-05T15:47:29.246Z,16.86
2023-05-05T15:49:55.690Z,16.39
2023-05-05T15:52:22.140Z,16.31
2023-05-05T15:54:48.590Z,16.52
2023-05-05T15:57:15.299Z,16.86
2023-05-05T15:59:41.770Z,16.75
2023-05-05T16:02:08.206Z,16.87
2023-05-05T16:04:34.650Z,16.97
2023-05-05T16:07:03.164Z,17.08
2023-05-05T16:09:29.581Z,17.18
2023-05-05T16:11:55.996Z,16.94
2023-05-05T16:14:22.478Z,16.92
2023-05-05T16:16:48.976Z,17.09
2023-05-05T16:19:15.909Z,17.11
2023-05-05T16:21:42.358Z,16.85
2023-05-05T16:24:08.827Z,16.45
2023-05-05T16:26:35.870Z,16.31
2023-05-05T16:29:02.348Z,16.28
2023-05-05T16:31:28.767Z,16.26
2023-05-05T16:33:55.208Z,16.16
2023-05-05T16:36:21.601Z,16.13
2023-05-05T16:38:48.064Z,16.25
2023-05-05T16:41:14.534Z,16.17
2023-05-05T16:43:40.958Z,16.30
2023-05-05T16:46:07.449Z,16.33
2023-05-05T16:48:33.929Z,16.40
2023-05-05T16:51:00.341Z,16.49
2023-05-05T16:53:26.819Z,16.67
2023-05-05T16:55:53.412Z,16.71
2023-05-05T16:58:21.174Z,16.43
2023-05-05T17:00:48.990Z,16.43
2023-05-05T17:03:16.538Z,16.19
2023-05-05T17:05:43.874Z,16.40
2023-05-05T17:08:14.474Z,16.53
2023-05-05T17:10:42.137Z,16.48
2023-05-05T17:13:09.608Z,16.59
2023-05-05T17:15:37.331Z,16.57
2023-05-05T17:18:07.855Z,16.54
2023-05-05T17:20:34.758Z,16.61
2023-05-05T17:23:03.885Z,16.61
2023-05-05T17:25:31.062Z,16.50
2023-05-05T17:27:57.487Z,16.43
2023-05-05T17:30:24.045Z,16.40
2023-05-05T17:32:50.533Z,16.42
2023-05-05T17:35:17.112Z,16.44
2023-05-05T17:37:43.533Z,16.23
2023-05-05T17:40:10.397Z,16.35
2023-05-05T17:42:38.082Z,16.35
2023-05-05T17:45:05.147Z,16.30
2023-05-05T17:47:31.888Z,16.18
2023-05-05T17:49:58.404Z,16.08
2023-05-05T17:52:24.972Z,16.05
2023-05-05T17:54:51.873Z,16.11
2023-05-05T17:57:20.952Z,15.96
2023-05-05T17:59:49.536Z,15.83
2023-05-05T18:02:16.730Z,15.58
2023-05-05T18:04:43.372Z,15.56
2023-05-05T18:07:11.830Z,15.61
2023-05-05T18:09:38.907Z,15.67
2023-05-05T18:12:05.771Z,15.74
2023-05-05T18:14:32.270Z,15.72
2023-05-05T18:16:58.715Z,15.81
2023-05-05T18:19:25.474Z,15.58
2023-05-05T18:21:54.398Z,15.39
2023-05-05T18:24:20.996Z,15.20
2023-05-05T18:26:52.435Z,15.03
2023-05-05T18:29:20.047Z,14.97
2023-05-05T18:31:51.530Z,14.74
2023-05-05T18:34:20.312Z,14.64
2023-05-05T18:36:47.768Z,14.63
2023-05-05T18:39:14.634Z,14.37
2023-05-05T18:41:41.332Z,14.32
2023-05-05T18:44:07.987Z,14.16
2023-05-05T18:46:34.677Z,14.08
2023-05-05T18:49:01.240Z,14.08
2023-05-05T18:51:28.550Z,13.92
2023-05-05T18:53:55.186Z,13.87
2023-05-05T18:56:21.730Z,13.67
2023-05-05T18:58:48.566Z,13.87
2023-05-05T19:01:15.999Z,13.84
2023-05-05T19:03:45.785Z,13.70
2023-05-05T19:06:12.254Z,13.52
2023-05-05T19:08:38.758Z,13.48
2023-05-05T19:11:05.301Z,13.42
2023-05-05T19:13:31.758Z,13.24
2023-05-05T19:15:58.327Z,13.19
2023-05-05T19:18:25.160Z,13.11
2023-05-05T19:20:51.607Z,12.87
2023-05-05T19:23:18.120Z,13.06
2023-05-05T19:25:44.709Z,12.86
2023-05-05T19:28:11.956Z,12.72
2023-05-05T19:30:38.427Z,12.89
2023-05-05T19:33:05.010Z,12.72
2023-05-05T19:35:31.549Z,12.77
2023-05-05T19:37:58.066Z,12.68
2023-05-05T19:40:24.606Z,12.64
2023-05-05T19:42:51.107Z,12.68
2023-05-05T19:45:17.821Z,12.71
2023-05-05T19:47:44.408Z,12.60
2023-05-05T19:50:11.522Z,12.58
2023-05-05T19:52:38.450Z,12.50
2023-05-05T19:55:05.871Z,12.39
2023-05-05T19:57:32.404Z,12.39
2023-05-05T19:59:58.896Z,12.28
2023-05-05T20:02:27.191Z,12.14
2023-05-05T20:04:53.898Z,12.10
2023-05-05T20:07:20.770Z,11.99
2023-05-05T20:09:47.252Z,12.00
2023-05-05T20:12:13.834Z,11.92
2023-05-05T20:14:40.508Z,11.83
2023-05-05T20:17:07.007Z,11.78
2023-05-05T20:19:33.498Z,11.73
2023-05-05T20:22:00.043Z,11.73
2023-05-05T20:24:28.469Z,11.75
2023-05-05T20:26:54.948Z,11.68
2023-05-05T20:29:22.067Z,11.62
2023-05-05T20:31:48.696Z,11.48
2023-05-05T20:34:15.213Z,11.47
2023-05-05T20:36:41.741Z,11.55
2023-05-05T20:39:08.338Z,11.59
2023-05-05T20:41:36.174Z,11.47
2023-05-05T20:44:02.598Z,11.38
2023-05-05T20:46:29.076Z,11.39
2023-05-05T20:48:55.594Z,11.35
2023-05-05T20:51:22.108Z,11.37
2023-05-05T20:53:48.528Z,11.20
2023-05-05T20:56:14.971Z,11.03
2023-05-05T20:58:41.402Z,11.09
2023-05-05T21:01:07.929Z,11.10
2023-05-05T21:03:36.131Z,11.05
2023-05-05T21:06:02.750Z,10.99
2023-05-05T21:08:29.735Z,11.05
2023-05-05T21:10:56.185Z,11.13
2023-05-05T21:13:23.009Z,11.24
2023-05-05T21:15:50.186Z,11.21
2023-05-05T21:18:16.648Z,11.25
2023-05-05T21:20:43.102Z,11.21
2023-05-05T21:23:09.594Z,11.14
2023-05-05T21:25:37.501Z,10.97
2023-05-05T21:28:04.243Z,10.79
2023-05-05T21:30:30.829Z,10.70
2023-05-05T21:32:57.484Z,10.68
2023-05-05T21:35:24.151Z,10.81
2023-05-05T21:37:50.759Z,10.75
2023-05-05T21:40:17.546Z,10.55
2023-05-05T21:42:44.120Z,10.42
2023-05-05T21:45:11.438Z,10.33
2023-05-05T21:47:38.019Z,10.27
2023-05-05T21:50:04.885Z,10.28
2023-05-05T21:52:31.446Z,10.29
2023-05-05T21:54:58.144Z,10.13
2023-05-05T21:57:24.671Z,10.02
2023-05-05T21:59:51.272Z,9.96
2023-05-05T22:02:17.895Z,9.92
2023-05-05T22:04:48.401Z,9.89
2023-05-05T22:07:15.414Z,9.86
2023-05-05T22:09:42.016Z,9.91
2023-05-05T22:12:08.557Z,9.87
2023-05-05T22:14:35.868Z,9.88
2023-05-05T22:17:02.464Z,9.83
2023-05-05T22:19:29.035Z,9.86
2023-05-05T22:21:57.376Z,9.71
2023-05-05T22:24:23.841Z,9.74
2023-05-05T22:26:50.472Z,9.88
2023-05-05T22:29:17.014Z,9.77
2023-05-05T22:31:43.515Z,9.52
2023-05-05T22:34:10.023Z,9.52
2023-05-05T22:36:36.610Z,9.62
2023-05-05T22:39:03.138Z,9.65
2023-05-05T22:41:29.652Z,9.74
2023-05-05T22:43:56.420Z,9.65
2023-05-05T22:46:22.917Z,9.52
2023-05-05T22:48:49.515Z,9.43
2023-05-05T22:51:16.390Z,9.45
2023-05-05T22:53:42.897Z,9.46
2023-05-05T22:56:09.338Z,9.54
2023-05-05T22:58:35.826Z,9.48
2023-05-05T23:01:02.402Z,9.34
2023-05-05T23:03:28.862Z,9.35
2023-05-05T23:05:55.326Z,9.42
2023-05-05T23:08:23.912Z,9.39
2023-05-05T23:10:50.542Z,9.38
2023-05-05T23:13:17.138Z,9.47
2023-05-05T23:15:43.648Z,9.45
2023-05-05T23:18:10.166Z,9.73
2023-05-05T23:20:36.611Z,9.81
2023-05-05T23:23:03.120Z,9.84
2023-05-05T23:25:29.650Z,9.67
2023-05-05T23:27:56.255Z,9.51
2023-05-05T23:30:22.762Z,9.49
2023-05-05T23:32:49.369Z,9.59
2023-05-05T23:35:16.320Z,9.58
2023-05-05T23:37:42.779Z,9.68
2023-05-05T23:40:09.576Z,9.63
2023-05-05T23:42:36.039Z,9.60
2023-05-05T23:45:03.350Z,9.57
2023-05-05T23:47:29.824Z,9.40
2023-05-05T23:49:56.367Z,9.56
2023-05-05T23:52:22.891Z,9.52
2023-05-05T23:54:49.427Z,9.56
2023-05-05T23:57:15.991Z,9.64
2023-05-05T23:59:42.489Z,9.62
